createdAt,value
2019-01-25T00:00:36.686Z,74.16
2019-01-25T00:01:37.262Z,73.74
2019-01-25T00:02:37.846Z,73.85
2019-01-25T00:03:38.431Z,73.74
2019-01-25T00:04:39.006Z,73.95
2019-01-25T00:05:39.587Z,74.05
2019-01-25T00:06:40.278Z,74.05
2019-01-25T00:07:40.868Z,73.95
2019-01-25T00:08:41.443Z,74.23
2019-01-25T00:09:42.025Z,74.02
2019-01-25T00:10:42.607Z,73.92
2019-01-25T00:11:44.195Z,73.92
2019-01-25T00:12:44.769Z,73.92
2019-01-25T00:13:45.351Z,73.92
2019-01-25T00:14:45.930Z,73.71
2019-01-25T00:15:46.514Z,73.71
2019-01-25T00:16:47.091Z,73.92
2019-01-25T00:17:49.688Z,73.71
2019-01-25T00:18:50.491Z,73.81
2019-01-25T00:19:51.072Z,73.95
2019-01-25T00:20:51.646Z,73.95
2019-01-25T00:21:52.222Z,73.85
2019-01-25T00:22:52.801Z,74.27
2019-01-25T00:23:53.408Z,74.16
2019-01-25T00:24:53.996Z,73.85
2019-01-25T00:25:54.547Z,74.05
2019-01-25T00:26:55.119Z,73.92
2019-01-25T00:27:55.702Z,73.95
2019-01-25T00:28:56.281Z,74.23
2019-01-25T00:29:56.869Z,74.13
2019-01-25T00:30:57.450Z,74.44
2019-01-25T00:31:58.054Z,74.23
2019-01-25T00:32:58.606Z,74.13
2019-01-25T00:33:59.188Z,73.92
2019-01-25T00:34:59.768Z,73.92
2019-01-25T00:36:00.349Z,73.92
2019-01-25T00:37:00.935Z,73.81
2019-01-25T00:38:01.510Z,73.81
2019-01-25T00:39:02.089Z,73.85
2019-01-25T00:40:06.416Z,73.95
2019-01-25T00:41:03.251Z,73.85
2019-01-25T00:42:03.841Z,73.85
2019-01-25T00:43:04.414Z,73.74
2019-01-25T00:44:04.997Z,74.16
2019-01-25T00:45:05.578Z,73.95
2019-01-25T00:46:06.160Z,73.74
2019-01-25T00:47:06.739Z,73.95
2019-01-25T00:48:07.331Z,74.05
2019-01-25T00:49:07.917Z,73.95
2019-01-25T00:50:08.491Z,73.95
2019-01-25T00:51:09.067Z,73.95
2019-01-25T00:52:09.651Z,74.27
2019-01-25T00:53:10.225Z,74.05
2019-01-25T00:54:10.817Z,74.05
2019-01-25T00:55:11.380Z,74.37
2019-01-25T00:56:12.971Z,74.55
2019-01-25T00:57:13.549Z,74.13
2019-01-25T00:58:14.148Z,74.02
2019-01-25T00:59:14.706Z,74.02
2019-01-25T01:00:15.311Z,74.13
2019-01-25T01:01:15.887Z,74.02
2019-01-25T01:02:16.466Z,74.02
2019-01-25T01:03:17.046Z,74.13
2019-01-25T01:04:17.629Z,74.02
2019-01-25T01:05:18.202Z,74.02
2019-01-25T01:06:18.785Z,74.13
2019-01-25T01:07:19.363Z,74.44
2019-01-25T01:08:19.954Z,74.13
2019-01-25T01:09:20.530Z,74.55
2019-01-25T01:10:21.121Z,74.44
2019-01-25T01:11:21.692Z,74.23
2019-01-25T01:12:22.284Z,74.23
2019-01-25T01:13:22.889Z,74.20
2019-01-25T01:14:23.444Z,74.30
2019-01-25T01:15:24.022Z,74.20
2019-01-25T01:16:24.601Z,74.23
2019-01-25T01:17:25.180Z,74.20
2019-01-25T01:18:25.764Z,74.20
2019-01-25T01:19:26.347Z,74.41
2019-01-25T01:20:26.927Z,74.30
2019-01-25T01:21:27.502Z,74.41
2019-01-25T01:22:28.090Z,74.30
2019-01-25T01:23:28.668Z,73.99
2019-01-25T01:24:29.252Z,73.99
2019-01-25T01:25:29.835Z,73.99
2019-01-25T01:26:30.413Z,73.99
2019-01-25T01:27:31.013Z,73.99
2019-01-25T01:28:31.593Z,74.09
2019-01-25T01:29:32.177Z,74.30
2019-01-25T01:30:32.756Z,74.20
2019-01-25T01:31:33.340Z,74.20
2019-01-25T01:32:33.922Z,73.99
2019-01-25T01:33:34.497Z,73.99
2019-01-25T01:34:36.081Z,73.99
2019-01-25T01:35:36.661Z,74.41
2019-01-25T01:36:38.242Z,74.41
2019-01-25T01:37:38.908Z,74.51
2019-01-25T01:38:39.486Z,74.41
2019-01-25T01:39:40.070Z,74.41
2019-01-25T01:40:41.656Z,74.51
2019-01-25T01:41:42.233Z,74.41
2019-01-25T01:42:43.818Z,74.41
2019-01-25T01:43:44.395Z,73.99
2019-01-25T01:44:44.983Z,73.99
2019-01-25T01:45:45.567Z,74.62
2019-01-25T01:46:46.150Z,74.41
2019-01-25T01:47:46.729Z,74.41
2019-01-25T01:48:47.313Z,74.51
2019-01-25T01:49:47.896Z,74.09
2019-01-25T01:50:48.482Z,73.99
2019-01-25T01:51:49.056Z,74.20
2019-01-25T01:52:49.643Z,74.09
2019-01-25T01:53:50.214Z,73.99
2019-01-25T01:54:50.801Z,73.99
2019-01-25T01:55:51.376Z,74.41
2019-01-25T01:56:51.958Z,74.41
2019-01-25T01:57:52.542Z,73.88
2019-01-25T01:58:53.119Z,74.51
2019-01-25T01:59:53.693Z,73.99
2019-01-25T02:00:54.271Z,74.09
2019-01-25T02:01:54.854Z,73.78
2019-01-25T02:02:55.435Z,74.30
2019-01-25T02:03:56.015Z,73.99
2019-01-25T02:04:56.599Z,74.51
2019-01-25T02:05:57.173Z,74.41
2019-01-25T02:06:57.757Z,74.51
2019-01-25T02:07:58.338Z,74.41
2019-01-25T02:08:58.922Z,73.99
2019-01-25T02:09:59.492Z,73.99
2019-01-25T02:11:00.075Z,73.99
2019-01-25T02:12:00.660Z,74.51
2019-01-25T02:13:01.243Z,73.99
2019-01-25T02:14:01.823Z,73.96
2019-01-25T02:15:02.404Z,74.30
2019-01-25T02:16:02.988Z,74.06
2019-01-25T02:17:03.570Z,73.96
2019-01-25T02:18:04.156Z,74.16
2019-01-25T02:19:04.739Z,74.30
2019-01-25T02:20:05.314Z,73.88
2019-01-25T02:21:05.906Z,73.96
2019-01-25T02:22:06.480Z,73.99
2019-01-25T02:23:07.072Z,73.99
2019-01-25T02:24:07.652Z,74.20
2019-01-25T02:25:08.242Z,73.99
2019-01-25T02:26:08.821Z,74.09
2019-01-25T02:27:09.407Z,74.37
2019-01-25T02:28:09.993Z,74.30
2019-01-25T02:29:10.568Z,74.30
2019-01-25T02:30:11.152Z,73.88
2019-01-25T02:31:11.733Z,73.88
2019-01-25T02:32:12.311Z,73.68
2019-01-25T02:33:12.892Z,73.85
2019-01-25T02:34:13.467Z,73.85
2019-01-25T02:35:14.052Z,73.88
2019-01-25T02:36:14.639Z,73.78
2019-01-25T02:37:15.210Z,73.68
2019-01-25T02:38:15.793Z,73.78
2019-01-25T02:39:16.407Z,73.78
2019-01-25T02:40:16.952Z,73.88
2019-01-25T02:41:17.536Z,73.78
2019-01-25T02:42:18.112Z,73.88
2019-01-25T02:43:18.695Z,73.68
2019-01-25T02:44:19.272Z,73.88
2019-01-25T02:45:19.855Z,73.57
2019-01-25T02:46:20.429Z,73.88
2019-01-25T02:47:21.014Z,73.64
2019-01-25T02:48:21.591Z,73.46
2019-01-25T02:49:22.184Z,73.88
2019-01-25T02:50:22.751Z,73.57
2019-01-25T02:51:23.335Z,73.78
2019-01-25T02:52:23.913Z,73.88
2019-01-25T02:53:24.512Z,73.68
2019-01-25T02:54:25.090Z,73.57
2019-01-25T02:55:33.500Z,74.09
2019-01-25T02:56:34.082Z,73.99
2019-01-25T02:57:34.655Z,73.78
2019-01-25T02:58:35.244Z,74.20
2019-01-25T02:59:35.842Z,74.41
2019-01-25T03:00:36.388Z,73.99
2019-01-25T03:01:37.258Z,73.99
2019-01-25T03:02:37.831Z,74.41
2019-01-25T03:03:38.406Z,74.41
2019-01-25T03:04:38.987Z,74.30
2019-01-25T03:05:39.569Z,74.30
2019-01-25T03:06:40.142Z,74.30
2019-01-25T03:07:40.722Z,74.41
2019-01-25T03:08:41.301Z,74.41
2019-01-25T03:09:41.887Z,74.16
2019-01-25T03:10:47.185Z,74.62
2019-01-25T03:11:43.031Z,74.48
2019-01-25T03:12:43.615Z,74.30
2019-01-25T03:13:44.196Z,74.27
2019-01-25T03:14:44.767Z,74.30
2019-01-25T03:15:45.347Z,74.30
2019-01-25T03:16:45.936Z,74.27
2019-01-25T03:17:46.527Z,74.30
2019-01-25T03:18:47.099Z,74.62
2019-01-25T03:19:47.682Z,74.48
2019-01-25T03:20:48.264Z,74.48
2019-01-25T03:21:48.857Z,74.37
2019-01-25T03:22:49.433Z,74.69
2019-01-25T03:23:50.009Z,74.16
2019-01-25T03:24:50.585Z,74.16
2019-01-25T03:25:51.177Z,74.37
2019-01-25T03:26:51.755Z,74.16
2019-01-25T03:27:52.334Z,74.27
2019-01-25T03:28:52.912Z,74.16
2019-01-25T03:29:53.508Z,74.27
2019-01-25T03:30:54.089Z,74.37
2019-01-25T03:31:54.656Z,74.27
2019-01-25T03:32:55.254Z,74.37
2019-01-25T03:33:55.808Z,74.48
2019-01-25T03:34:56.390Z,74.48
2019-01-25T03:35:56.998Z,74.27
2019-01-25T03:36:57.554Z,74.37
2019-01-25T03:37:58.137Z,74.27
2019-01-25T03:38:58.708Z,74.27
2019-01-25T03:39:59.292Z,73.85
2019-01-25T03:40:59.877Z,73.88
2019-01-25T03:42:00.459Z,73.88
2019-01-25T03:43:01.039Z,73.96
2019-01-25T03:44:01.616Z,73.88
2019-01-25T03:45:02.194Z,73.68
2019-01-25T03:46:02.772Z,73.88
2019-01-25T03:47:03.353Z,73.78
2019-01-25T03:48:03.937Z,73.68
2019-01-25T03:49:04.512Z,73.88
2019-01-25T03:50:05.093Z,73.78
2019-01-25T03:51:05.673Z,73.88
2019-01-25T03:52:06.264Z,73.88
2019-01-25T03:53:06.838Z,73.99
2019-01-25T03:54:07.425Z,73.78
2019-01-25T03:55:08.004Z,73.78
2019-01-25T03:56:08.591Z,73.68
2019-01-25T03:57:09.181Z,73.88
2019-01-25T03:58:09.781Z,73.57
2019-01-25T03:59:10.362Z,72.83
2019-01-25T04:00:10.944Z,72.86
2019-01-25T04:01:11.528Z,72.97
2019-01-25T04:02:12.108Z,72.45
2019-01-25T04:03:12.684Z,72.34
2019-01-25T04:04:13.263Z,72.06
2019-01-25T04:05:13.844Z,72.38
2019-01-25T04:06:14.430Z,72.38
2019-01-25T04:07:14.999Z,72.38
2019-01-25T04:08:15.574Z,72.38
2019-01-25T04:09:16.157Z,72.06
2019-01-25T04:10:16.746Z,72.80
2019-01-25T04:11:17.330Z,72.90
2019-01-25T04:12:17.910Z,72.80
2019-01-25T04:13:18.484Z,73.11
2019-01-25T04:14:19.067Z,72.90
2019-01-25T04:15:19.653Z,72.90
2019-01-25T04:16:20.231Z,73.00
2019-01-25T04:17:20.805Z,72.66
2019-01-25T04:18:21.393Z,73.08
2019-01-25T04:19:21.964Z,73.18
2019-01-25T04:20:22.544Z,72.97
2019-01-25T04:21:23.126Z,72.97
2019-01-25T04:22:25.715Z,73.18
2019-01-25T04:23:26.297Z,72.97
2019-01-25T04:24:26.885Z,72.97
2019-01-25T04:25:27.454Z,73.18
2019-01-25T04:26:28.030Z,72.94
2019-01-25T04:27:28.613Z,72.97
2019-01-25T04:28:29.187Z,72.97
2019-01-25T04:29:29.774Z,73.18
2019-01-25T04:30:30.355Z,72.97
2019-01-25T04:31:30.934Z,72.97
2019-01-25T04:32:31.508Z,72.83
2019-01-25T04:33:32.095Z,72.97
2019-01-25T04:34:32.674Z,72.97
2019-01-25T04:35:33.253Z,72.86
2019-01-25T04:36:33.834Z,72.86
2019-01-25T04:37:34.428Z,72.86
2019-01-25T04:38:35.000Z,72.86
2019-01-25T04:39:35.584Z,72.66
2019-01-25T04:40:36.157Z,72.66
2019-01-25T04:41:36.750Z,72.76
2019-01-25T04:42:37.336Z,72.55
2019-01-25T04:43:37.923Z,72.76
2019-01-25T04:44:38.490Z,72.66
2019-01-25T04:45:39.070Z,72.97
2019-01-25T04:46:39.653Z,72.86
2019-01-25T04:47:40.235Z,72.86
2019-01-25T04:48:40.821Z,72.90
2019-01-25T04:49:41.394Z,72.80
2019-01-25T04:50:41.970Z,72.69
2019-01-25T04:51:43.558Z,72.90
2019-01-25T04:52:44.132Z,72.90
2019-01-25T04:53:44.718Z,73.11
2019-01-25T04:54:45.299Z,73.22
2019-01-25T04:55:45.882Z,73.32
2019-01-25T04:56:46.453Z,73.00
2019-01-25T04:57:47.035Z,73.11
2019-01-25T04:58:47.626Z,73.11
2019-01-25T04:59:48.306Z,73.14
2019-01-25T05:00:48.831Z,73.35
2019-01-25T05:01:49.416Z,73.35
2019-01-25T05:02:49.999Z,73.04
2019-01-25T05:03:50.586Z,73.25
2019-01-25T05:04:51.160Z,72.93
2019-01-25T05:05:51.753Z,72.65
2019-01-25T05:06:52.360Z,73.49
2019-01-25T05:07:52.907Z,73.70
2019-01-25T05:08:53.483Z,73.70
2019-01-25T05:09:54.076Z,73.81
2019-01-25T05:10:54.643Z,73.81
2019-01-25T05:11:55.221Z,73.60
2019-01-25T05:12:55.813Z,73.81
2019-01-25T05:13:56.402Z,74.02
2019-01-25T05:14:56.971Z,74.02
2019-01-25T05:15:57.559Z,73.91
2019-01-25T05:16:58.136Z,73.91
2019-01-25T05:17:58.720Z,73.81
2019-01-25T05:18:59.294Z,74.02
2019-01-25T05:19:59.874Z,73.67
2019-01-25T05:21:00.460Z,74.02
2019-01-25T05:22:01.042Z,73.81
2019-01-25T05:23:01.631Z,74.12
2019-01-25T05:24:02.200Z,74.22
2019-01-25T05:25:02.776Z,74.22
2019-01-25T05:26:03.363Z,74.22
2019-01-25T05:27:03.936Z,73.91
2019-01-25T05:28:04.520Z,73.70
2019-01-25T05:29:05.101Z,74.19
2019-01-25T05:30:05.674Z,74.02
2019-01-25T05:31:06.252Z,74.02
2019-01-25T05:32:06.835Z,74.19
2019-01-25T05:33:07.421Z,73.60
2019-01-25T05:34:07.999Z,73.70
2019-01-25T05:35:08.580Z,73.70
2019-01-25T05:36:09.157Z,73.81
2019-01-25T05:37:09.738Z,73.91
2019-01-25T05:38:10.332Z,74.02
2019-01-25T05:39:10.895Z,74.12
2019-01-25T05:40:11.479Z,74.22
2019-01-25T05:41:12.054Z,73.88
2019-01-25T05:42:12.753Z,73.91
2019-01-25T05:43:13.333Z,73.81
2019-01-25T05:44:13.919Z,74.02
2019-01-25T05:45:14.499Z,74.02
2019-01-25T05:46:15.137Z,73.77
2019-01-25T05:47:15.660Z,73.67
2019-01-25T05:48:16.279Z,73.77
2019-01-25T05:49:16.819Z,73.77
2019-01-25T05:50:17.405Z,74.19
2019-01-25T05:51:17.991Z,73.67
2019-01-25T05:52:18.577Z,73.88
2019-01-25T05:53:19.159Z,74.19
2019-01-25T05:54:19.728Z,73.77
2019-01-25T05:55:20.306Z,73.99
2019-01-25T05:56:20.895Z,73.99
2019-01-25T05:57:21.482Z,74.09
2019-01-25T05:58:24.075Z,74.19
2019-01-25T05:59:24.642Z,74.40
2019-01-25T06:00:25.212Z,74.19
2019-01-25T06:01:26.458Z,74.09
2019-01-25T06:02:26.369Z,74.09
2019-01-25T06:03:26.952Z,74.30
2019-01-25T06:04:27.535Z,74.09
2019-01-25T06:05:28.112Z,74.09
2019-01-25T06:06:28.702Z,74.09
2019-01-25T06:07:30.282Z,74.19
2019-01-25T06:08:30.866Z,74.09
2019-01-25T06:09:31.445Z,73.99
2019-01-25T06:10:32.028Z,74.40
2019-01-25T06:11:35.547Z,74.62
2019-01-25T06:12:33.185Z,74.62
2019-01-25T06:13:34.776Z,74.40
2019-01-25T06:14:35.348Z,74.09
2019-01-25T06:15:35.935Z,74.51
2019-01-25T06:16:36.508Z,74.72
2019-01-25T06:17:37.106Z,74.65
2019-01-25T06:18:37.692Z,74.72
2019-01-25T06:19:38.277Z,74.76
2019-01-25T06:20:38.852Z,74.82
2019-01-25T06:21:39.435Z,74.62
2019-01-25T06:22:40.008Z,74.82
2019-01-25T06:23:40.610Z,74.72
2019-01-25T06:24:41.177Z,74.82
2019-01-25T06:25:41.780Z,74.82
2019-01-25T06:26:42.341Z,75.14
2019-01-25T06:27:42.924Z,74.82
2019-01-25T06:28:43.510Z,74.82
2019-01-25T06:29:44.086Z,74.93
2019-01-25T06:30:44.721Z,75.04
2019-01-25T06:31:45.294Z,75.14
2019-01-25T06:32:45.959Z,74.82
2019-01-25T06:33:46.545Z,74.93
2019-01-25T06:34:48.232Z,75.04
2019-01-25T06:35:48.812Z,75.14
2019-01-25T06:36:49.394Z,75.04
2019-01-25T06:37:49.976Z,74.93
2019-01-25T06:38:50.549Z,75.56
2019-01-25T06:39:51.138Z,75.04
2019-01-25T06:40:51.716Z,75.35
2019-01-25T06:41:52.308Z,75.56
2019-01-25T06:42:52.876Z,75.56
2019-01-25T06:43:53.487Z,75.56
2019-01-25T06:44:54.125Z,75.24
2019-01-25T06:45:54.706Z,75.46
2019-01-25T06:46:55.281Z,76.09
2019-01-25T06:47:55.859Z,75.87
2019-01-25T06:48:56.435Z,76.19
2019-01-25T06:49:57.012Z,75.56
2019-01-25T06:50:57.587Z,75.77
2019-01-25T06:51:58.164Z,75.56
2019-01-25T06:52:58.748Z,75.77
2019-01-25T06:53:59.409Z,75.56
2019-01-25T06:54:59.993Z,76.09
2019-01-25T06:56:00.668Z,76.09
2019-01-25T06:57:01.246Z,76.19
2019-01-25T06:58:01.900Z,76.29
2019-01-25T06:59:02.477Z,76.51
2019-01-25T07:00:03.061Z,76.51
2019-01-25T07:01:03.643Z,76.19
2019-01-25T07:02:04.227Z,76.29
2019-01-25T07:03:04.816Z,76.40
2019-01-25T07:04:05.393Z,76.40
2019-01-25T07:05:05.970Z,76.29
2019-01-25T07:06:06.553Z,76.19
2019-01-25T07:07:07.138Z,75.98
2019-01-25T07:08:07.734Z,76.09
2019-01-25T07:09:08.319Z,76.15
2019-01-25T07:10:08.900Z,76.26
2019-01-25T07:11:09.480Z,75.98
2019-01-25T07:12:10.091Z,75.87
2019-01-25T07:13:10.681Z,75.87
2019-01-25T07:14:11.254Z,75.87
2019-01-25T07:15:11.831Z,75.98
2019-01-25T07:16:12.403Z,76.09
2019-01-25T07:17:12.982Z,75.87
2019-01-25T07:18:13.568Z,76.40
2019-01-25T07:19:14.140Z,76.29
2019-01-25T07:20:14.718Z,76.61
2019-01-25T07:21:15.301Z,76.61
2019-01-25T07:22:15.984Z,75.74
2019-01-25T07:23:16.566Z,76.47
2019-01-25T07:24:17.146Z,76.61
2019-01-25T07:25:17.721Z,76.05
2019-01-25T07:26:18.300Z,76.15
2019-01-25T07:27:18.918Z,76.57
2019-01-25T07:28:19.456Z,76.26
2019-01-25T07:29:20.048Z,76.68
2019-01-25T07:30:20.645Z,76.47
2019-01-25T07:31:21.305Z,76.68
2019-01-25T07:32:21.884Z,76.26
2019-01-25T07:33:22.535Z,76.26
2019-01-25T07:34:23.068Z,76.37
2019-01-25T07:35:23.687Z,76.26
2019-01-25T07:36:24.253Z,76.57
2019-01-25T07:37:24.885Z,76.68
2019-01-25T07:38:25.441Z,76.57
2019-01-25T07:39:26.170Z,76.68
2019-01-25T07:40:26.605Z,76.57
2019-01-25T07:41:27.144Z,76.57
2019-01-25T07:42:27.760Z,76.37
2019-01-25T07:43:28.305Z,76.89
2019-01-25T07:44:28.977Z,76.89
2019-01-25T07:45:29.562Z,76.89
2019-01-25T07:46:30.236Z,76.57
2019-01-25T07:47:32.755Z,76.79
2019-01-25T07:48:31.400Z,77.00
2019-01-25T07:49:31.977Z,77.10
2019-01-25T07:50:32.611Z,77.07
2019-01-25T07:51:33.213Z,77.00
2019-01-25T07:52:33.767Z,77.07
2019-01-25T07:53:36.475Z,77.17
2019-01-25T07:54:36.996Z,77.17
2019-01-25T07:55:37.669Z,76.86
2019-01-25T07:56:38.248Z,76.54
2019-01-25T07:57:38.859Z,76.75
2019-01-25T07:58:39.425Z,76.65
2019-01-25T07:59:40.005Z,76.96
2019-01-25T08:00:40.754Z,76.75
2019-01-25T08:01:41.142Z,77.07
2019-01-25T08:02:41.723Z,76.93
2019-01-25T08:03:42.294Z,77.17
2019-01-25T08:04:42.873Z,76.75
2019-01-25T08:05:43.592Z,77.03
2019-01-25T08:06:44.138Z,77.28
2019-01-25T08:07:44.836Z,77.66
2019-01-25T08:08:45.406Z,77.70
2019-01-25T08:09:45.972Z,77.66
2019-01-25T08:10:46.562Z,77.34
2019-01-25T08:11:47.155Z,77.34
2019-01-25T08:12:47.803Z,77.56
2019-01-25T08:13:48.313Z,77.45
2019-01-25T08:14:48.890Z,77.66
2019-01-25T08:15:50.980Z,76.72
2019-01-25T08:16:51.645Z,76.82
2019-01-25T08:17:52.223Z,76.93
2019-01-25T08:18:52.792Z,76.82
2019-01-25T08:19:53.373Z,77.03
2019-01-25T08:20:53.976Z,76.61
2019-01-25T08:21:56.589Z,76.79
2019-01-25T08:22:57.155Z,76.72
2019-01-25T08:23:57.738Z,76.68
2019-01-25T08:25:00.438Z,76.68
2019-01-25T08:26:00.919Z,76.79
2019-01-25T08:27:01.608Z,76.89
2019-01-25T08:28:02.192Z,76.79
2019-01-25T08:29:04.023Z,76.79
2019-01-25T08:30:04.438Z,76.57
2019-01-25T08:31:05.017Z,77.52
2019-01-25T08:32:12.577Z,77.62
2019-01-25T08:33:13.157Z,77.62
2019-01-25T08:34:13.842Z,77.52
2019-01-25T08:35:14.401Z,77.52
2019-01-25T08:36:15.086Z,77.42
2019-01-25T08:37:15.748Z,77.31
2019-01-25T08:38:16.217Z,77.00
2019-01-25T08:39:16.851Z,77.52
2019-01-25T08:40:17.412Z,77.21
2019-01-25T08:41:17.952Z,77.52
2019-01-25T08:42:18.567Z,77.42
2019-01-25T08:43:19.124Z,77.62
2019-01-25T08:44:19.745Z,77.62
2019-01-25T08:45:20.293Z,78.08
2019-01-25T08:46:20.969Z,77.87
2019-01-25T08:47:21.538Z,78.08
2019-01-25T08:48:22.121Z,78.15
2019-01-25T08:49:22.709Z,78.29
2019-01-25T08:50:23.307Z,78.19
2019-01-25T08:51:23.848Z,78.25
2019-01-25T08:52:24.424Z,78.47
2019-01-25T08:53:25.045Z,78.47
2019-01-25T08:54:25.762Z,78.39
2019-01-25T08:55:26.168Z,78.29
2019-01-25T08:56:26.747Z,78.29
2019-01-25T08:57:27.418Z,78.08
2019-01-25T08:58:28.000Z,78.50
2019-01-25T08:59:28.578Z,78.05
2019-01-25T09:00:29.159Z,78.71
2019-01-25T09:01:29.755Z,78.61
2019-01-25T09:02:30.325Z,78.50
2019-01-25T09:03:30.903Z,78.61
2019-01-25T09:04:31.563Z,78.57
2019-01-25T09:05:32.139Z,78.57
2019-01-25T09:06:32.802Z,78.67
2019-01-25T09:07:33.389Z,78.78
2019-01-25T09:08:34.048Z,78.67
2019-01-25T09:09:34.631Z,78.47
2019-01-25T09:10:35.209Z,78.36
2019-01-25T09:11:35.791Z,78.57
2019-01-25T09:12:36.367Z,78.47
2019-01-25T09:13:36.941Z,78.57
2019-01-25T09:14:37.612Z,78.36
2019-01-25T09:15:38.174Z,78.57
2019-01-25T09:16:38.757Z,78.47
2019-01-25T09:17:39.354Z,78.33
2019-01-25T09:18:39.935Z,78.47
2019-01-25T09:19:40.598Z,78.43
2019-01-25T09:20:41.173Z,78.43
2019-01-25T09:21:41.854Z,78.43
2019-01-25T09:22:42.413Z,78.22
2019-01-25T09:23:43.073Z,78.43
2019-01-25T09:24:43.693Z,78.33
2019-01-25T09:25:44.319Z,78.11
2019-01-25T09:26:44.909Z,78.11
2019-01-25T09:27:46.593Z,78.11
2019-01-25T09:28:47.173Z,78.67
2019-01-25T09:29:47.834Z,78.78
2019-01-25T09:30:48.430Z,78.89
2019-01-25T09:31:49.039Z,78.53
2019-01-25T09:32:49.614Z,78.64
2019-01-25T09:33:50.282Z,78.64
2019-01-25T09:34:50.863Z,78.74
2019-01-25T09:35:51.527Z,78.85
2019-01-25T09:36:52.105Z,78.74
2019-01-25T09:37:52.766Z,78.74
2019-01-25T09:38:53.348Z,78.64
2019-01-25T09:39:55.034Z,78.81
2019-01-25T09:40:55.617Z,78.60
2019-01-25T09:41:56.274Z,78.60
2019-01-25T09:42:56.858Z,78.60
2019-01-25T09:43:57.531Z,78.71
2019-01-25T09:44:58.096Z,78.71
2019-01-25T09:45:59.788Z,78.67
2019-01-25T09:47:00.372Z,78.67
2019-01-25T09:48:01.030Z,78.67
2019-01-25T09:49:01.616Z,78.36
2019-01-25T09:50:02.272Z,78.08
2019-01-25T09:51:02.862Z,78.05
2019-01-25T09:52:04.544Z,78.05
2019-01-25T09:53:05.123Z,78.05
2019-01-25T09:54:06.807Z,78.05
2019-01-25T09:55:07.390Z,78.19
2019-01-25T09:56:07.980Z,77.83
2019-01-25T09:57:08.561Z,78.15
2019-01-25T09:58:09.144Z,77.73
2019-01-25T09:59:09.718Z,78.15
2019-01-25T10:00:10.299Z,78.05
2019-01-25T10:01:10.881Z,78.15
2019-01-25T10:02:11.456Z,78.25
2019-01-25T10:03:12.037Z,78.05
2019-01-25T10:04:12.617Z,78.57
2019-01-25T10:05:13.192Z,78.15
2019-01-25T10:06:13.771Z,78.05
2019-01-25T10:07:14.415Z,78.05
2019-01-25T10:08:15.000Z,78.15
2019-01-25T10:09:15.585Z,78.01
2019-01-25T10:10:16.172Z,77.69
2019-01-25T10:11:16.749Z,77.69
2019-01-25T10:12:17.323Z,78.01
2019-01-25T10:13:17.902Z,78.22
2019-01-25T10:14:18.472Z,78.11
2019-01-25T10:15:19.051Z,78.22
2019-01-25T10:16:19.809Z,78.11
2019-01-25T10:17:20.381Z,78.32
2019-01-25T10:18:24.831Z,77.91
2019-01-25T10:19:21.540Z,77.87
2019-01-25T10:20:22.191Z,77.80
2019-01-25T10:21:22.766Z,77.87
2019-01-25T10:22:23.347Z,77.66
2019-01-25T10:23:23.929Z,77.97
2019-01-25T10:24:24.509Z,77.87
2019-01-25T10:25:25.083Z,77.87
2019-01-25T10:26:25.661Z,77.97
2019-01-25T10:27:26.246Z,77.76
2019-01-25T10:28:26.823Z,77.66
2019-01-25T10:29:27.401Z,77.66
2019-01-25T10:30:27.980Z,77.66
2019-01-25T10:31:28.562Z,77.55
2019-01-25T10:32:29.140Z,77.52
2019-01-25T10:33:29.723Z,78.04
2019-01-25T10:34:30.367Z,77.73
2019-01-25T10:35:31.660Z,77.62
2019-01-25T10:36:31.524Z,77.62
2019-01-25T10:37:32.108Z,77.83
2019-01-25T10:38:32.688Z,78.04
2019-01-25T10:39:33.281Z,77.73
2019-01-25T10:40:33.891Z,77.94
2019-01-25T10:41:34.477Z,78.25
2019-01-25T10:42:35.051Z,78.15
2019-01-25T10:43:35.635Z,78.04
2019-01-25T10:44:36.214Z,78.25
2019-01-25T10:45:36.906Z,78.25
2019-01-25T10:46:37.497Z,78.56
2019-01-25T10:47:38.069Z,78.42
2019-01-25T10:48:38.703Z,78.25
2019-01-25T10:49:39.286Z,78.56
2019-01-25T10:50:39.875Z,78.56
2019-01-25T10:51:40.448Z,78.63
2019-01-25T10:52:41.048Z,78.63
2019-01-25T10:53:41.634Z,78.42
2019-01-25T10:54:42.207Z,78.74
2019-01-25T10:55:42.791Z,78.53
2019-01-25T10:56:43.478Z,78.46
2019-01-25T10:57:44.062Z,79.09
2019-01-25T10:58:44.637Z,79.09
2019-01-25T10:59:45.310Z,79.09
2019-01-25T11:00:45.890Z,79.30
2019-01-25T11:01:46.472Z,79.19
2019-01-25T11:02:47.070Z,79.02
2019-01-25T11:03:47.653Z,79.54
2019-01-25T11:04:48.240Z,79.86
2019-01-25T11:05:48.828Z,79.64
2019-01-25T11:06:49.416Z,79.96
2019-01-25T11:07:50.076Z,79.86
2019-01-25T11:08:50.661Z,80.49
2019-01-25T11:09:51.264Z,80.38
2019-01-25T11:10:51.853Z,80.38
2019-01-25T11:11:52.504Z,80.49
2019-01-25T11:13:00.520Z,80.49
2019-01-25T11:13:53.665Z,80.80
2019-01-25T11:14:54.311Z,80.59
2019-01-25T11:15:54.882Z,81.12
2019-01-25T11:16:55.470Z,81.36
2019-01-25T11:17:56.071Z,80.80
2019-01-25T11:18:56.714Z,81.22
2019-01-25T11:19:57.300Z,81.01
2019-01-25T11:20:57.954Z,81.22
2019-01-25T11:21:58.533Z,81.01
2019-01-25T11:22:59.194Z,80.90
2019-01-25T11:23:59.785Z,81.12
2019-01-25T11:25:00.445Z,81.01
2019-01-25T11:26:01.021Z,81.12
2019-01-25T11:27:01.622Z,81.95
2019-01-25T11:28:02.201Z,81.22
2019-01-25T11:29:02.785Z,81.85
2019-01-25T11:30:03.372Z,81.74
2019-01-25T11:31:03.944Z,81.53
2019-01-25T11:32:04.524Z,81.32
2019-01-25T11:33:06.119Z,81.32
2019-01-25T11:34:06.795Z,81.85
2019-01-25T11:35:07.350Z,81.70
2019-01-25T11:36:07.920Z,81.81
2019-01-25T11:37:08.583Z,81.39
2019-01-25T11:38:09.162Z,81.60
2019-01-25T11:39:09.831Z,82.37
2019-01-25T11:40:10.406Z,81.53
2019-01-25T11:41:11.075Z,81.49
2019-01-25T11:42:11.646Z,81.32
2019-01-25T11:43:12.309Z,81.49
2019-01-25T11:44:12.896Z,82.58
2019-01-25T11:45:13.555Z,81.43
2019-01-25T11:46:14.134Z,81.32
2019-01-25T11:47:14.801Z,82.26
2019-01-25T11:48:15.432Z,82.26
2019-01-25T11:49:16.043Z,82.26
2019-01-25T11:50:16.622Z,82.58
2019-01-25T11:51:17.285Z,82.51
2019-01-25T11:52:17.867Z,83.45
2019-01-25T11:53:18.525Z,83.42
2019-01-25T11:54:19.103Z,83.56
2019-01-25T11:55:19.690Z,83.21
2019-01-25T11:56:20.266Z,83.31
2019-01-25T11:57:20.976Z,83.66
2019-01-25T11:58:21.496Z,83.83
2019-01-25T11:59:22.145Z,83.62
2019-01-25T12:00:22.728Z,83.77
2019-01-25T12:01:23.388Z,83.77
2019-01-25T12:02:23.991Z,83.98
2019-01-25T12:03:24.629Z,83.77
2019-01-25T12:04:25.215Z,83.77
2019-01-25T12:05:25.874Z,83.94
2019-01-25T12:06:26.460Z,83.83
2019-01-25T12:07:27.116Z,83.73
2019-01-25T12:08:27.698Z,83.83
2019-01-25T12:09:28.368Z,83.73
2019-01-25T12:10:28.942Z,83.73
2019-01-25T12:11:29.601Z,83.83
2019-01-25T12:12:30.181Z,83.90
2019-01-25T12:13:30.789Z,83.94
2019-01-25T12:14:31.373Z,83.69
2019-01-25T12:15:32.032Z,83.80
2019-01-25T12:16:32.616Z,83.90
2019-01-25T12:17:33.279Z,83.59
2019-01-25T12:18:33.859Z,83.80
2019-01-25T12:19:34.516Z,83.80
2019-01-25T12:20:35.095Z,83.90
2019-01-25T12:21:35.763Z,84.22
2019-01-25T12:22:36.401Z,84.07
2019-01-25T12:23:36.957Z,84.42
2019-01-25T12:24:37.507Z,84.39
2019-01-25T12:25:38.085Z,83.86
2019-01-25T12:26:38.671Z,84.22
2019-01-25T12:27:39.244Z,84.11
2019-01-25T12:28:39.867Z,84.11
2019-01-25T12:29:40.440Z,83.76
2019-01-25T12:30:41.103Z,83.48
2019-01-25T12:31:41.687Z,83.76
2019-01-25T12:32:42.277Z,83.76
2019-01-25T12:33:42.854Z,83.76
2019-01-25T12:34:43.435Z,83.86
2019-01-25T12:35:44.015Z,83.55
2019-01-25T12:36:44.612Z,83.55
2019-01-25T12:37:45.186Z,84.07
2019-01-25T12:38:45.774Z,83.97
2019-01-25T12:39:46.347Z,83.97
2019-01-25T12:40:46.932Z,84.42
2019-01-25T12:41:47.517Z,84.49
2019-01-25T12:42:48.096Z,84.17
2019-01-25T12:43:48.680Z,84.70
2019-01-25T12:44:49.279Z,84.53
2019-01-25T12:45:50.314Z,84.28
2019-01-25T12:46:50.426Z,84.49
2019-01-25T12:47:51.009Z,84.39
2019-01-25T12:48:51.592Z,84.49
2019-01-25T12:49:52.169Z,84.42
2019-01-25T12:50:52.773Z,84.70
2019-01-25T12:51:53.349Z,84.91
2019-01-25T12:52:53.964Z,84.80
2019-01-25T12:53:54.513Z,84.80
2019-01-25T12:54:55.098Z,85.33
2019-01-25T12:55:55.670Z,85.12
2019-01-25T12:56:56.261Z,84.59
2019-01-25T12:57:56.842Z,84.70
2019-01-25T12:58:57.429Z,85.43
2019-01-25T12:59:58.012Z,85.96
2019-01-25T13:00:58.591Z,85.85